sensor_id;sensor_type;location;lat;lon;timestamp;P1;durP1;ratioP1;P2;durP2;ratioP2
12721;SDS011;6425;50.316;8.114;2023-11-25T00:00:00;9.8;;;2.1;;
12721;SDS011;6425;50.316;8.114;2023-11-25T00:03:00;9.1;;;2.3;;
12721;SDS011;6425;50.316;8.114;2023-11-25T00:06:00;9.1;;;2.3;;
12721;SDS011;6425;50.316;8.114;2023-11-25T00:09:00;7.3;;;2.7;;
12721;SDS011;6425;50.316;8.114;2023-11-25T00:12:00;6.2;;;2.1;;
12721;SDS011;6425;50.316;8.114;2023-11-25T00:15:00;6.2;;;2.1;;
12721;SDS011;6425;50.316;8.114;2023-11-25T00:18:00;5.8;;;1.5;;
12721;SDS011;6425;50.316;8.114;2023-11-25T00:21:00;7.4;;;2;;
12721;SDS011;6425;50.316;8.114;2023-11-25T00:24:00;7.4;;;2;;
12721;SDS011;6425;50.316;8.114;2023-11-25T00:27:00;8.8;;;2.1;;
12721;SDS011;6425;50.316;8.114;2023-11-25T00:30:00;8.8;;;2.1;;
12721;SDS011;6425;50.316;8.114;2023-11-25T00:33:00;6.6;;;1.9;;
12721;SDS011;6425;50.316;8.114;2023-11-25T00:36:00;7.5;;;2.1;;
12721;SDS011;6425;50.316;8.114;2023-11-25T00:39:00;7.5;;;2.1;;
12721;SDS011;6425;50.316;8.114;2023-11-25T00:42:00;6.1;;;1.5;;
12721;SDS011;6425;50.316;8.114;2023-11-25T00:45:00;6.1;;;1.5;;
12721;SDS011;6425;50.316;8.114;2023-11-25T00:48:00;9.1;;;2.6;;
12721;SDS011;6425;50.316;8.114;2023-11-25T00:51:00;6.5;;;1.8;;
12721;SDS011;6425;50.316;8.114;2023-11-25T00:54:00;6.5;;;1.8;;
12721;SDS011;6425;50.316;8.114;2023-11-25T00:57:00;7.5;;;2.1;;
12721;SDS011;6425;50.316;8.114;2023-11-25T01:00:00;7.5;;;2.1;;
12721;SDS011;6425;50.316;8.114;2023-11-25T01:03:00;8.2;;;2.9;;
12721;SDS011;6425;50.316;8.114;2023-11-25T01:06:05;10.8;;;2.4;;
12721;SDS011;6425;50.316;8.114;2023-11-25T01:09:00;10.8;;;2.4;;
12721;SDS011;6425;50.316;8.114;2023-11-25T01:12:00;8.8;;;2;;
12721;SDS011;6425;50.316;8.114;2023-11-25T01:15:00;8.8;;;2;;
12721;SDS011;6425;50.316;8.114;2023-11-25T01:18:00;5.1;;;1.6;;
12721;SDS011;6425;50.316;8.114;2023-11-25T01:21:00;7.8;;;1.9;;
12721;SDS011;6425;50.316;8.114;2023-11-25T01:24:00;7.8;;;1.9;;
12721;SDS011;6425;50.316;8.114;2023-11-25T01:27:00;7.4;;;2.1;;
12721;SDS011;6425;50.316;8.114;2023-11-25T01:30:00;7.4;;;2.1;;
12721;SDS011;6425;50.316;8.114;2023-11-25T01:33:00;5.8;;;1.8;;
12721;SDS011;6425;50.316;8.114;2023-11-25T01:36:00;6;;;2;;
12721;SDS011;6425;50.316;8.114;2023-11-25T01:39:00;6;;;2;;
12721;SDS011;6425;50.316;8.114;2023-11-25T01:42:00;4.5;;;1.7;;
12721;SDS011;6425;50.316;8.114;2023-11-25T01:45:00;4.5;;;1.7;;
12721;SDS011;6425;50.316;8.114;2023-11-25T01:48:00;6.9;;;1.5;;
12721;SDS011;6425;50.316;8.114;2023-11-25T01:51:00;7.3;;;1.5;;
12721;SDS011;6425;50.316;8.114;2023-11-25T01:54:00;7.3;;;1.5;;
12721;SDS011;6425;50.316;8.114;2023-11-25T01:57:00;3.2;;;0.7;;
12721;SDS011;6425;50.316;8.114;2023-11-25T02:00:00;3.2;;;0.7;;
12721;SDS011;6425;50.316;8.114;2023-11-25T02:03:00;3.3;;;1.3;;
12721;SDS011;6425;50.316;8.114;2023-11-25T02:06:00;6.6;;;1.3;;
12721;SDS011;6425;50.316;8.114;2023-11-25T02:09:00;6.6;;;1.3;;
12721;SDS011;6425;50.316;8.114;2023-11-25T02:12:00;5.5;;;1.3;;
12721;SDS011;6425;50.316;8.114;2023-11-25T02:15:00;5.5;;;1.3;;
12721;SDS011;6425;50.316;8.114;2023-11-25T02:18:00;5.4;;;1.4;;
12721;SDS011;6425;50.316;8.114;2023-11-25T02:21:00;5.4;;;1.2;;
12721;SDS011;6425;50.316;8.114;2023-11-25T02:24:00;5.4;;;1.2;;
12721;SDS011;6425;50.316;8.114;2023-11-25T02:27:00;4.4;;;1.3;;
12721;SDS011;6425;50.316;8.114;2023-11-25T02:30:00;4.4;;;1.3;;
12721;SDS011;6425;50.316;8.114;2023-11-25T02:33:00;1.7;;;1.6;;
12721;SDS011;6425;50.316;8.114;2023-11-25T02:36:00;4.1;;;2.1;;
12721;SDS011;6425;50.316;8.114;2023-11-25T02:39:00;4.1;;;2.1;;
12721;SDS011;6425;50.316;8.114;2023-11-25T02:42:00;8.4;;;2.5;;
12721;SDS011;6425;50.316;8.114;2023-11-25T02:45:00;7.4;;;2.5;;
12721;SDS011;6425;50.316;8.114;2023-11-25T02:48:00;4.7;;;2.7;;
12721;SDS011;6425;50.316;8.114;2023-11-25T02:51:00;9.3;;;3.5;;
12721;SDS011;6425;50.316;8.114;2023-11-25T02:54:00;9.3;;;3.5;;
12721;SDS011;6425;50.316;8.114;2023-11-25T02:57:00;8.4;;;3.8;;
12721;SDS011;6425;50.316;8.114;2023-11-25T03:00:00;8.1;;;4.1;;
12721;SDS011;6425;50.316;8.114;2023-11-25T03:03:00;8.1;;;4.1;;
12721;SDS011;6425;50.316;8.114;2023-11-25T03:06:00;10.1;;;3.4;;
12721;SDS011;6425;50.316;8.114;2023-11-25T03:09:00;10.1;;;3.4;;
12721;SDS011;6425;50.316;8.114;2023-11-25T03:12:00;5.5;;;2.9;;
12721;SDS011;6425;50.316;8.114;2023-11-25T03:15:00;4.7;;;2.9;;
12721;SDS011;6425;50.316;8.114;2023-11-25T03:18:00;4.7;;;2.9;;
12721;SDS011;6425;50.316;8.114;2023-11-25T03:21:00;10.2;;;3.9;;
12721;SDS011;6425;50.316;8.114;2023-11-25T03:24:00;10.2;;;3.9;;
12721;SDS011;6425;50.316;8.114;2023-11-25T03:27:00;8.8;;;4.4;;
12721;SDS011;6425;50.316;8.114;2023-11-25T03:30:00;5.2;;;3.1;;
12721;SDS011;6425;50.316;8.114;2023-11-25T03:33:00;5.2;;;3.1;;
12721;SDS011;6425;50.316;8.114;2023-11-25T03:36:00;6.3;;;4.1;;
12721;SDS011;6425;50.316;8.114;2023-11-25T03:39:00;6.3;;;4.1;;
12721;SDS011;6425;50.316;8.114;2023-11-25T03:42:00;7.1;;;3.9;;
12721;SDS011;6425;50.316;8.114;2023-11-25T03:45:00;8.3;;;4.2;;
12721;SDS011;6425;50.316;8.114;2023-11-25T03:48:00;8.3;;;4.2;;
12721;SDS011;6425;50.316;8.114;2023-11-25T03:51:00;5.7;;;3.6;;
12721;SDS011;6425;50.316;8.114;2023-11-25T03:54:00;5.7;;;3.6;;
12721;SDS011;6425;50.316;8.114;2023-11-25T03:57:00;13.2;;;5;;
12721;SDS011;6425;50.316;8.114;2023-11-25T04:00:00;10;;;5;;
12721;SDS011;6425;50.316;8.114;2023-11-25T04:03:00;10;;;5;;
12721;SDS011;6425;50.316;8.114;2023-11-25T04:06:00;12.1;;;5.1;;
12721;SDS011;6425;50.316;8.114;2023-11-25T04:09:00;12.1;;;5.1;;
12721;SDS011;6425;50.316;8.114;2023-11-25T04:12:00;14;;;5.8;;
12721;SDS011;6425;50.316;8.114;2023-11-25T04:15:00;12.5;;;4.8;;
12721;SDS011;6425;50.316;8.114;2023-11-25T04:18:00;12.5;;;4.8;;
12721;SDS011;6425;50.316;8.114;2023-11-25T04:21:00;9.3;;;5.9;;
12721;SDS011;6425;50.316;8.114;2023-11-25T04:24:00;9.3;;;5.9;;
12721;SDS011;6425;50.316;8.114;2023-11-25T04:27:00;14.8;;;6.2;;
12721;SDS011;6425;50.316;8.114;2023-11-25T04:30:00;11.9;;;5.8;;
12721;SDS011;6425;50.316;8.114;2023-11-25T04:33:00;11.9;;;5.8;;
12721;SDS011;6425;50.316;8.114;2023-11-25T04:36:00;14;;;6.7;;
12721;SDS011;6425;50.316;8.114;2023-11-25T04:39:00;14;;;6.7;;
12721;SDS011;6425;50.316;8.114;2023-11-25T04:42:00;17;;;5.4;;
12721;SDS011;6425;50.316;8.114;2023-11-25T04:45:00;14.5;;;5.6;;
12721;SDS011;6425;50.316;8.114;2023-11-25T04:48:00;14.5;;;5.6;;
12721;SDS011;6425;50.316;8.114;2023-11-25T04:51:00;12.7;;;5.1;;
12721;SDS011;6425;50.316;8.114;2023-11-25T04:54:00;12.7;;;5.1;;
12721;SDS011;6425;50.316;8.114;2023-11-25T04:57:00;12.6;;;5.2;;
12721;SDS011;6425;50.316;8.114;2023-11-25T05:00:00;13.1;;;4.2;;
12721;SDS011;6425;50.316;8.114;2023-11-25T05:03:00;13.1;;;4.2;;
12721;SDS011;6425;50.316;8.114;2023-11-25T05:06:00;16.1;;;4.2;;
12721;SDS011;6425;50.316;8.114;2023-11-25T05:09:00;16.1;;;4.2;;
12721;SDS011;6425;50.316;8.114;2023-11-25T05:12:00;13.8;;;5;;
12721;SDS011;6425;50.316;8.114;2023-11-25T05:15:00;15.4;;;5.7;;
12721;SDS011;6425;50.316;8.114;2023-11-25T05:18:00;15.4;;;5.7;;
12721;SDS011;6425;50.316;8.114;2023-11-25T05:21:00;13.5;;;5.3;;
12721;SDS011;6425;50.316;8.114;2023-11-25T05:24:00;12.4;;;3.8;;
12721;SDS011;6425;50.316;8.114;2023-11-25T05:27:00;12.1;;;3.3;;
12721;SDS011;6425;50.316;8.114;2023-11-25T05:30:00;20.3;;;5.9;;
12721;SDS011;6425;50.316;8.114;2023-11-25T05:33:00;20.3;;;5.9;;
12721;SDS011;6425;50.316;8.114;2023-11-25T05:36:00;14.7;;;5.1;;
12721;SDS011;6425;50.316;8.114;2023-11-25T05:39:00;14.2;;;5.3;;
12721;SDS011;6425;50.316;8.114;2023-11-25T05:42:00;14.2;;;5.3;;
12721;SDS011;6425;50.316;8.114;2023-11-25T05:45:00;19.6;;;5.8;;
12721;SDS011;6425;50.316;8.114;2023-11-25T05:48:00;19.6;;;5.8;;
12721;SDS011;6425;50.316;8.114;2023-11-25T05:51:00;18.8;;;5.9;;
12721;SDS011;6425;50.316;8.114;2023-11-25T05:54:00;13.8;;;5.1;;
12721;SDS011;6425;50.316;8.114;2023-11-25T05:57:00;13.8;;;5.1;;
12721;SDS011;6425;50.316;8.114;2023-11-25T06:00:00;20.8;;;7.6;;
12721;SDS011;6425;50.316;8.114;2023-11-25T06:03:00;20.8;;;7.6;;
12721;SDS011;6425;50.316;8.114;2023-11-25T06:06:00;21;;;8;;
12721;SDS011;6425;50.316;8.114;2023-11-25T06:09:00;19;;;6.3;;
12721;SDS011;6425;50.316;8.114;2023-11-25T06:12:00;19;;;6.3;;
12721;SDS011;6425;50.316;8.114;2023-11-25T06:15:00;17.1;;;5.6;;
12721;SDS011;6425;50.316;8.114;2023-11-25T06:18:00;17.1;;;5.6;;
12721;SDS011;6425;50.316;8.114;2023-11-25T06:21:00;17.6;;;5.8;;
12721;SDS011;6425;50.316;8.114;2023-11-25T06:24:00;16.4;;;5.5;;
12721;SDS011;6425;50.316;8.114;2023-11-25T06:27:00;16.4;;;5.5;;
12721;SDS011;6425;50.316;8.114;2023-11-25T06:30:00;10.8;;;4;;
12721;SDS011;6425;50.316;8.114;2023-11-25T06:33:00;10.8;;;4;;
12721;SDS011;6425;50.316;8.114;2023-11-25T06:36:00;20.7;;;5.2;;
12721;SDS011;6425;50.316;8.114;2023-11-25T06:39:00;8.9;;;3.3;;
12721;SDS011;6425;50.316;8.114;2023-11-25T06:42:00;8.9;;;3.3;;
12721;SDS011;6425;50.316;8.114;2023-11-25T06:45:00;12.1;;;3.1;;
12721;SDS011;6425;50.316;8.114;2023-11-25T06:48:00;12.1;;;3.1;;
12721;SDS011;6425;50.316;8.114;2023-11-25T06:51:00;13.6;;;4.3;;
12721;SDS011;6425;50.316;8.114;2023-11-25T06:54:00;14.2;;;3.7;;
12721;SDS011;6425;50.316;8.114;2023-11-25T06:57:00;14.2;;;3.7;;
12721;SDS011;6425;50.316;8.114;2023-11-25T07:00:00;17.5;;;4.3;;
12721;SDS011;6425;50.316;8.114;2023-11-25T07:03:00;17.5;;;4.3;;
12721;SDS011;6425;50.316;8.114;2023-11-25T07:06:00;18.7;;;4;;
12721;SDS011;6425;50.316;8.114;2023-11-25T07:09:00;13.3;;;3.4;;
12721;SDS011;6425;50.316;8.114;2023-11-25T07:12:00;13.3;;;3.4;;
12721;SDS011;6425;50.316;8.114;2023-11-25T07:15:00;14.2;;;4;;
12721;SDS011;6425;50.316;8.114;2023-11-25T07:18:00;14.2;;;4;;
12721;SDS011;6425;50.316;8.114;2023-11-25T07:21:00;21.5;;;4.9;;
12721;SDS011;6425;50.316;8.114;2023-11-25T07:24:00;16.7;;;4.8;;
12721;SDS011;6425;50.316;8.114;2023-11-25T07:27:00;16.7;;;4.8;;
12721;SDS011;6425;50.316;8.114;2023-11-25T07:30:00;17.5;;;4.2;;
12721;SDS011;6425;50.316;8.114;2023-11-25T07:33:00;17.5;;;4.2;;
12721;SDS011;6425;50.316;8.114;2023-11-25T07:36:00;5.6;;;2.2;;
12721;SDS011;6425;50.316;8.114;2023-11-25T07:39:00;12.8;;;3.4;;
12721;SDS011;6425;50.316;8.114;2023-11-25T07:42:00;12.8;;;3.4;;
12721;SDS011;6425;50.316;8.114;2023-11-25T07:45:00;11.7;;;2.7;;
12721;SDS011;6425;50.316;8.114;2023-11-25T07:48:00;11.7;;;2.7;;
12721;SDS011;6425;50.316;8.114;2023-11-25T07:51:00;16.1;;;2.6;;
12721;SDS011;6425;50.316;8.114;2023-11-25T07:54:00;19.3;;;3.7;;
12721;SDS011;6425;50.316;8.114;2023-11-25T07:57:00;19.3;;;3.7;;
12721;SDS011;6425;50.316;8.114;2023-11-25T08:00:00;13.3;;;2.3;;
12721;SDS011;6425;50.316;8.114;2023-11-25T08:03:00;13.6;;;3.9;;
12721;SDS011;6425;50.316;8.114;2023-11-25T08:06:00;13.6;;;3.9;;
12721;SDS011;6425;50.316;8.114;2023-11-25T08:09:00;8.8;;;1.9;;
12721;SDS011;6425;50.316;8.114;2023-11-25T08:12:00;8.8;;;1.9;;
12721;SDS011;6425;50.316;8.114;2023-11-25T08:15:00;12;;;2.2;;
12721;SDS011;6425;50.316;8.114;2023-11-25T08:18:00;12.5;;;2.4;;
12721;SDS011;6425;50.316;8.114;2023-11-25T08:21:00;12.5;;;2.4;;
12721;SDS011;6425;50.316;8.114;2023-11-25T08:24:00;7.6;;;1.8;;
12721;SDS011;6425;50.316;8.114;2023-11-25T08:27:00;7.6;;;1.8;;
12721;SDS011;6425;50.316;8.114;2023-11-25T08:30:00;9.3;;;1.7;;
12721;SDS011;6425;50.316;8.114;2023-11-25T08:33:00;11.1;;;1.7;;
12721;SDS011;6425;50.316;8.114;2023-11-25T08:36:00;11.1;;;1.7;;
12721;SDS011;6425;50.316;8.114;2023-11-25T08:39:00;9.7;;;1.9;;
12721;SDS011;6425;50.316;8.114;2023-11-25T08:42:00;9.7;;;1.9;;
12721;SDS011;6425;50.316;8.114;2023-11-25T08:45:00;8.8;;;1.3;;
12721;SDS011;6425;50.316;8.114;2023-11-25T08:48:00;7.6;;;1.2;;
12721;SDS011;6425;50.316;8.114;2023-11-25T08:51:00;7.6;;;1.2;;
12721;SDS011;6425;50.316;8.114;2023-11-25T08:54:00;2.6;;;0.8;;
12721;SDS011;6425;50.316;8.114;2023-11-25T08:57:00;2.6;;;0.8;;
12721;SDS011;6425;50.316;8.114;2023-11-25T09:00:00;12.3;;;2.3;;
12721;SDS011;6425;50.316;8.114;2023-11-25T09:03:00;8.3;;;1.4;;
12721;SDS011;6425;50.316;8.114;2023-11-25T09:06:00;8.3;;;1.4;;
12721;SDS011;6425;50.316;8.114;2023-11-25T09:09:00;9.5;;;1.4;;
12721;SDS011;6425;50.316;8.114;2023-11-25T09:12:00;9.5;;;1.4;;
12721;SDS011;6425;50.316;8.114;2023-11-25T09:15:00;16.2;;;2.5;;
12721;SDS011;6425;50.316;8.114;2023-11-25T09:18:00;9.6;;;1.9;;
12721;SDS011;6425;50.316;8.114;2023-11-25T09:21:00;9.6;;;1.9;;
12721;SDS011;6425;50.316;8.114;2023-11-25T09:24:00;10.6;;;1.7;;
12721;SDS011;6425;50.316;8.114;2023-11-25T09:27:00;10.6;;;1.7;;
12721;SDS011;6425;50.316;8.114;2023-11-25T09:30:00;10.8;;;1.4;;
12721;SDS011;6425;50.316;8.114;2023-11-25T09:33:00;2.8;;;0.6;;
12721;SDS011;6425;50.316;8.114;2023-11-25T09:36:00;2.8;;;0.6;;
12721;SDS011;6425;50.316;8.114;2023-11-25T09:39:00;6;;;1;;
12721;SDS011;6425;50.316;8.114;2023-11-25T09:42:00;6;;;1;;
12721;SDS011;6425;50.316;8.114;2023-11-25T09:45:00;8.2;;;1;;
12721;SDS011;6425;50.316;8.114;2023-11-25T09:48:00;7.5;;;0.9;;
12721;SDS011;6425;50.316;8.114;2023-11-25T09:51:00;7.5;;;0.9;;
12721;SDS011;6425;50.316;8.114;2023-11-25T09:54:02;5.1;;;1.2;;
12721;SDS011;6425;50.316;8.114;2023-11-25T09:57:00;5.1;;;1.2;;
12721;SDS011;6425;50.316;8.114;2023-11-25T10:00:00;2.5;;;0.7;;
12721;SDS011;6425;50.316;8.114;2023-11-25T10:03:00;9.7;;;1;;
12721;SDS011;6425;50.316;8.114;2023-11-25T10:06:00;9.7;;;1;;
12721;SDS011;6425;50.316;8.114;2023-11-25T10:09:01;9.2;;;1.3;;
12721;SDS011;6425;50.316;8.114;2023-11-25T10:12:00;9.2;;;1.3;;
12721;SDS011;6425;50.316;8.114;2023-11-25T10:15:00;3.7;;;0.8;;
12721;SDS011;6425;50.316;8.114;2023-11-25T10:18:00;6.6;;;1.2;;
12721;SDS011;6425;50.316;8.114;2023-11-25T10:21:00;6.6;;;1.2;;
12721;SDS011;6425;50.316;8.114;2023-11-25T10:24:05;7.3;;;1.4;;
12721;SDS011;6425;50.316;8.114;2023-11-25T10:27:00;7.3;;;1.4;;
12721;SDS011;6425;50.316;8.114;2023-11-25T10:30:00;7;;;0.8;;
12721;SDS011;6425;50.316;8.114;2023-11-25T10:33:00;5.9;;;1.1;;
12721;SDS011;6425;50.316;8.114;2023-11-25T10:36:00;5.9;;;1.1;;
12721;SDS011;6425;50.316;8.114;2023-11-25T10:39:00;4.5;;;1.2;;
12721;SDS011;6425;50.316;8.114;2023-11-25T10:42:01;3.9;;;1;;
12721;SDS011;6425;50.316;8.114;2023-11-25T10:45:00;3.9;;;1;;
12721;SDS011;6425;50.316;8.114;2023-11-25T10:48:00;2.1;;;0.3;;
12721;SDS011;6425;50.316;8.114;2023-11-25T10:51:00;2.1;;;0.3;;
12721;SDS011;6425;50.316;8.114;2023-11-25T10:54:00;0.9;;;0.4;;
12721;SDS011;6425;50.316;8.114;2023-11-25T10:57:00;5.8;;;1.1;;
12721;SDS011;6425;50.316;8.114;2023-11-25T11:00:00;5.8;;;1.1;;
12721;SDS011;6425;50.316;8.114;2023-11-25T11:03:00;5.9;;;0.9;;
12721;SDS011;6425;50.316;8.114;2023-11-25T11:06:00;5.9;;;0.9;;
12721;SDS011;6425;50.316;8.114;2023-11-25T11:09:00;0.6;;;0.4;;
12721;SDS011;6425;50.316;8.114;2023-11-25T11:12:01;2.4;;;0.3;;
12721;SDS011;6425;50.316;8.114;2023-11-25T11:15:02;2.4;;;0.3;;
12721;SDS011;6425;50.316;8.114;2023-11-25T11:18:01;6.2;;;1;;
12721;SDS011;6425;50.316;8.114;2023-11-25T11:21:00;6.2;;;1;;
12721;SDS011;6425;50.316;8.114;2023-11-25T11:24:00;4.3;;;0.5;;
12721;SDS011;6425;50.316;8.114;2023-11-25T11:27:01;3.3;;;0.8;;
12721;SDS011;6425;50.316;8.114;2023-11-25T11:30:02;3.3;;;0.8;;
12721;SDS011;6425;50.316;8.114;2023-11-25T11:33:00;4.1;;;0.9;;
12721;SDS011;6425;50.316;8.114;2023-11-25T11:36:01;4.1;;;0.9;;
12721;SDS011;6425;50.316;8.114;2023-11-25T11:39:00;2.2;;;0.6;;
12721;SDS011;6425;50.316;8.114;2023-11-25T11:42:31;3.4;;;1.1;;
12721;SDS011;6425;50.316;8.114;2023-11-25T11:45:01;3.4;;;1.1;;
12721;SDS011;6425;50.316;8.114;2023-11-25T11:48:00;2.8;;;0.7;;
12721;SDS011;6425;50.316;8.114;2023-11-25T11:51:00;2.8;;;0.7;;
12721;SDS011;6425;50.316;8.114;2023-11-25T11:54:22;2.1;;;0.6;;
12721;SDS011;6425;50.316;8.114;2023-11-25T11:57:01;2.4;;;0.7;;
12721;SDS011;6425;50.316;8.114;2023-11-25T12:00:00;2.4;;;0.7;;
12721;SDS011;6425;50.316;8.114;2023-11-25T12:03:00;3.4;;;0.7;;
12721;SDS011;6425;50.316;8.114;2023-11-25T12:06:00;3.4;;;0.7;;
12721;SDS011;6425;50.316;8.114;2023-11-25T12:09:02;3.9;;;0.6;;
12721;SDS011;6425;50.316;8.114;2023-11-25T12:12:00;3.1;;;0.9;;
12721;SDS011;6425;50.316;8.114;2023-11-25T12:15:00;3.1;;;0.9;;
12721;SDS011;6425;50.316;8.114;2023-11-25T12:18:00;5.4;;;1.5;;
12721;SDS011;6425;50.316;8.114;2023-11-25T12:21:00;5.4;;;1.5;;
12721;SDS011;6425;50.316;8.114;2023-11-25T12:24:00;6.9;;;1.9;;
12721;SDS011;6425;50.316;8.114;2023-11-25T12:27:00;2.4;;;1.4;;
12721;SDS011;6425;50.316;8.114;2023-11-25T12:30:00;2.4;;;1.4;;
12721;SDS011;6425;50.316;8.114;2023-11-25T12:33:00;6.8;;;1.7;;
12721;SDS011;6425;50.316;8.114;2023-11-25T12:36:00;6.8;;;1.7;;
12721;SDS011;6425;50.316;8.114;2023-11-25T12:39:00;7.4;;;3.2;;
12721;SDS011;6425;50.316;8.114;2023-11-25T12:42:01;5.1;;;2.8;;
12721;SDS011;6425;50.316;8.114;2023-11-25T12:45:00;5.1;;;2.8;;
12721;SDS011;6425;50.316;8.114;2023-11-25T12:48:00;7.5;;;2.3;;
12721;SDS011;6425;50.316;8.114;2023-11-25T12:51:00;7.5;;;2.3;;
12721;SDS011;6425;50.316;8.114;2023-11-25T12:54:00;4.1;;;1.8;;
12721;SDS011;6425;50.316;8.114;2023-11-25T12:57:00;5.5;;;1.5;;
12721;SDS011;6425;50.316;8.114;2023-11-25T13:00:05;5.5;;;1.5;;
12721;SDS011;6425;50.316;8.114;2023-11-25T13:03:00;12.2;;;7.8;;
12721;SDS011;6425;50.316;8.114;2023-11-25T13:06:00;12.2;;;7.8;;
12721;SDS011;6425;50.316;8.114;2023-11-25T13:09:00;9.4;;;4.2;;
12721;SDS011;6425;50.316;8.114;2023-11-25T13:12:00;4.8;;;2.5;;
12721;SDS011;6425;50.316;8.114;2023-11-25T13:15:00;4.8;;;2.5;;
12721;SDS011;6425;50.316;8.114;2023-11-25T13:18:00;8.3;;;1.9;;
12721;SDS011;6425;50.316;8.114;2023-11-25T13:21:00;5;;;1.5;;
12721;SDS011;6425;50.316;8.114;2023-11-25T13:24:00;4;;;1.4;;
12721;SDS011;6425;50.316;8.114;2023-11-25T13:27:00;6.2;;;1.8;;
12721;SDS011;6425;50.316;8.114;2023-11-25T13:30:00;6.2;;;1.8;;
12721;SDS011;6425;50.316;8.114;2023-11-25T13:33:00;8.3;;;2.9;;
12721;SDS011;6425;50.316;8.114;2023-11-25T13:36:00;3.4;;;1.4;;
12721;SDS011;6425;50.316;8.114;2023-11-25T13:39:00;3.4;;;1.4;;
12721;SDS011;6425;50.316;8.114;2023-11-25T13:42:00;4.7;;;1.4;;
12721;SDS011;6425;50.316;8.114;2023-11-25T13:45:00;4.7;;;1.4;;
12721;SDS011;6425;50.316;8.114;2023-11-25T13:48:00;4.2;;;1.5;;
12721;SDS011;6425;50.316;8.114;2023-11-25T13:51:00;10.5;;;2.6;;
12721;SDS011;6425;50.316;8.114;2023-11-25T13:54:00;10.5;;;2.6;;
12721;SDS011;6425;50.316;8.114;2023-11-25T13:57:00;4.7;;;2.5;;
12721;SDS011;6425;50.316;8.114;2023-11-25T14:00:00;4.7;;;2.5;;
12721;SDS011;6425;50.316;8.114;2023-11-25T14:03:00;4.2;;;1.1;;
12721;SDS011;6425;50.316;8.114;2023-11-25T14:06:00;5;;;1.4;;
12721;SDS011;6425;50.316;8.114;2023-11-25T14:09:00;5;;;1.4;;
12721;SDS011;6425;50.316;8.114;2023-11-25T14:12:00;4.9;;;1.8;;
12721;SDS011;6425;50.316;8.114;2023-11-25T14:15:00;4.9;;;1.8;;
12721;SDS011;6425;50.316;8.114;2023-11-25T14:18:00;4.9;;;2.2;;
12721;SDS011;6425;50.316;8.114;2023-11-25T14:21:00;3.6;;;1.2;;
12721;SDS011;6425;50.316;8.114;2023-11-25T14:24:00;3.6;;;1.2;;
12721;SDS011;6425;50.316;8.114;2023-11-25T14:27:00;4.6;;;1.5;;
12721;SDS011;6425;50.316;8.114;2023-11-25T14:30:00;4.6;;;1.5;;
12721;SDS011;6425;50.316;8.114;2023-11-25T14:33:00;4.5;;;1.5;;
12721;SDS011;6425;50.316;8.114;2023-11-25T14:36:00;3.8;;;1.3;;
12721;SDS011;6425;50.316;8.114;2023-11-25T14:39:00;3.8;;;1.3;;
12721;SDS011;6425;50.316;8.114;2023-11-25T14:42:00;4.8;;;1.4;;
12721;SDS011;6425;50.316;8.114;2023-11-25T14:45:00;4.8;;;1.4;;
12721;SDS011;6425;50.316;8.114;2023-11-25T14:48:00;3.4;;;1.4;;
12721;SDS011;6425;50.316;8.114;2023-11-25T14:51:00;6;;;2.1;;
12721;SDS011;6425;50.316;8.114;2023-11-25T14:54:00;6;;;2.1;;
12721;SDS011;6425;50.316;8.114;2023-11-25T14:57:00;5.1;;;1.4;;
12721;SDS011;6425;50.316;8.114;2023-11-25T15:00:00;5.1;;;1.4;;
12721;SDS011;6425;50.316;8.114;2023-11-25T15:03:00;5.6;;;2;;
12721;SDS011;6425;50.316;8.114;2023-11-25T15:06:00;4;;;1.7;;
12721;SDS011;6425;50.316;8.114;2023-11-25T15:09:00;4;;;1.7;;
12721;SDS011;6425;50.316;8.114;2023-11-25T15:12:00;4.2;;;1.8;;
12721;SDS011;6425;50.316;8.114;2023-11-25T15:15:00;4.2;;;1.8;;
12721;SDS011;6425;50.316;8.114;2023-11-25T15:18:00;4.7;;;1.8;;
12721;SDS011;6425;50.316;8.114;2023-11-25T15:21:00;3.9;;;1.9;;
12721;SDS011;6425;50.316;8.114;2023-11-25T15:24:00;3.9;;;1.9;;
12721;SDS011;6425;50.316;8.114;2023-11-25T15:27:00;6.1;;;2;;
12721;SDS011;6425;50.316;8.114;2023-11-25T15:30:00;6.1;;;2;;
12721;SDS011;6425;50.316;8.114;2023-11-25T15:33:00;8.4;;;2.4;;
12721;SDS011;6425;50.316;8.114;2023-11-25T15:36:00;4.9;;;2.5;;
12721;SDS011;6425;50.316;8.114;2023-11-25T15:39:00;4.9;;;2.5;;
12721;SDS011;6425;50.316;8.114;2023-11-25T15:42:00;5.8;;;2;;
12721;SDS011;6425;50.316;8.114;2023-11-25T15:45:00;5.8;;;2;;
12721;SDS011;6425;50.316;8.114;2023-11-25T15:48:00;7.3;;;2.6;;
12721;SDS011;6425;50.316;8.114;2023-11-25T15:51:00;3.8;;;2.7;;
12721;SDS011;6425;50.316;8.114;2023-11-25T15:54:00;3.8;;;2.7;;
12721;SDS011;6425;50.316;8.114;2023-11-25T15:57:00;5.4;;;2.7;;
12721;SDS011;6425;50.316;8.114;2023-11-25T16:00:00;5;;;2.5;;
12721;SDS011;6425;50.316;8.114;2023-11-25T16:03:00;3.8;;;2.1;;
12721;SDS011;6425;50.316;8.114;2023-11-25T16:06:00;5;;;1.7;;
12721;SDS011;6425;50.316;8.114;2023-11-25T16:09:00;5;;;1.7;;
12721;SDS011;6425;50.316;8.114;2023-11-25T16:12:00;4.3;;;1.7;;
12721;SDS011;6425;50.316;8.114;2023-11-25T16:15:00;7.9;;;2.5;;
12721;SDS011;6425;50.316;8.114;2023-11-25T16:18:00;7.9;;;2.5;;
12721;SDS011;6425;50.316;8.114;2023-11-25T16:21:00;8.1;;;2.6;;
12721;SDS011;6425;50.316;8.114;2023-11-25T16:24:00;8.1;;;2.6;;
12721;SDS011;6425;50.316;8.114;2023-11-25T16:27:00;7.5;;;2;;
12721;SDS011;6425;50.316;8.114;2023-11-25T16:30:00;7.4;;;2.3;;
12721;SDS011;6425;50.316;8.114;2023-11-25T16:33:02;7.4;;;2.3;;
12721;SDS011;6425;50.316;8.114;2023-11-25T16:36:00;5.2;;;1.7;;
12721;SDS011;6425;50.316;8.114;2023-11-25T16:39:00;5.2;;;1.7;;
12721;SDS011;6425;50.316;8.114;2023-11-25T16:42:00;2;;;1.1;;
12721;SDS011;6425;50.316;8.114;2023-11-25T16:45:00;6.7;;;2.1;;
12721;SDS011;6425;50.316;8.114;2023-11-25T16:48:00;6.7;;;2.1;;
12721;SDS011;6425;50.316;8.114;2023-11-25T16:51:00;7.3;;;2.8;;
12721;SDS011;6425;50.316;8.114;2023-11-25T16:54:00;7.3;;;2.8;;
12721;SDS011;6425;50.316;8.114;2023-11-25T16:57:00;7.5;;;2.6;;
12721;SDS011;6425;50.316;8.114;2023-11-25T17:00:00;7.3;;;2.3;;
12721;SDS011;6425;50.316;8.114;2023-11-25T17:03:00;7.3;;;2.3;;
12721;SDS011;6425;50.316;8.114;2023-11-25T17:06:00;4.9;;;1.5;;
12721;SDS011;6425;50.316;8.114;2023-11-25T17:09:00;4.9;;;1.5;;
12721;SDS011;6425;50.316;8.114;2023-11-25T17:12:00;16.3;;;4.7;;
12721;SDS011;6425;50.316;8.114;2023-11-25T17:15:00;5.1;;;2.1;;
12721;SDS011;6425;50.316;8.114;2023-11-25T17:18:00;5.1;;;2.1;;
12721;SDS011;6425;50.316;8.114;2023-11-25T17:21:00;9.8;;;3;;
12721;SDS011;6425;50.316;8.114;2023-11-25T17:24:00;9.8;;;3;;
12721;SDS011;6425;50.316;8.114;2023-11-25T17:27:00;7;;;3.2;;
12721;SDS011;6425;50.316;8.114;2023-11-25T17:30:00;9.3;;;2.6;;
12721;SDS011;6425;50.316;8.114;2023-11-25T17:33:00;9.3;;;2.6;;
12721;SDS011;6425;50.316;8.114;2023-11-25T17:36:00;9.4;;;3.2;;
12721;SDS011;6425;50.316;8.114;2023-11-25T17:39:00;9.4;;;3.2;;
12721;SDS011;6425;50.316;8.114;2023-11-25T17:42:00;7.9;;;2.8;;
12721;SDS011;6425;50.316;8.114;2023-11-25T17:45:00;6.6;;;2.5;;
12721;SDS011;6425;50.316;8.114;2023-11-25T17:48:00;6.6;;;2.5;;
12721;SDS011;6425;50.316;8.114;2023-11-25T17:51:00;7.6;;;2.8;;
12721;SDS011;6425;50.316;8.114;2023-11-25T17:54:00;7.6;;;2.8;;
12721;SDS011;6425;50.316;8.114;2023-11-25T17:57:00;7.6;;;2.8;;
12721;SDS011;6425;50.316;8.114;2023-11-25T18:00:00;5.7;;;2.2;;
12721;SDS011;6425;50.316;8.114;2023-11-25T18:03:00;5.7;;;2.2;;
12721;SDS011;6425;50.316;8.114;2023-11-25T18:06:00;10.1;;;4.7;;
12721;SDS011;6425;50.316;8.114;2023-11-25T18:09:00;10.1;;;4.7;;
12721;SDS011;6425;50.316;8.114;2023-11-25T18:12:00;8.8;;;4;;
12721;SDS011;6425;50.316;8.114;2023-11-25T18:15:00;11.8;;;6;;
12721;SDS011;6425;50.316;8.114;2023-11-25T18:18:00;11.8;;;6;;
12721;SDS011;6425;50.316;8.114;2023-11-25T18:21:00;13.5;;;9.2;;
12721;SDS011;6425;50.316;8.114;2023-11-25T18:24:00;13.5;;;9.2;;
12721;SDS011;6425;50.316;8.114;2023-11-25T18:27:00;55.3;;;25.8;;
12721;SDS011;6425;50.316;8.114;2023-11-25T18:30:00;17.8;;;10.7;;
12721;SDS011;6425;50.316;8.114;2023-11-25T18:33:00;17.8;;;10.7;;
12721;SDS011;6425;50.316;8.114;2023-11-25T18:36:00;24.3;;;11.9;;
12721;SDS011;6425;50.316;8.114;2023-11-25T18:39:00;24.3;;;11.9;;
12721;SDS011;6425;50.316;8.114;2023-11-25T18:42:00;6.1;;;1.7;;
12721;SDS011;6425;50.316;8.114;2023-11-25T18:45:00;10.8;;;5.8;;
12721;SDS011;6425;50.316;8.114;2023-11-25T18:48:00;10.8;;;5.8;;
12721;SDS011;6425;50.316;8.114;2023-11-25T18:51:00;4.5;;;1.7;;
12721;SDS011;6425;50.316;8.114;2023-11-25T18:54:00;12.7;;;5;;